Wolfeboro, New Hampshire
Current Conditions -  °F | °C
As of 3:35 AM on Sunday 26 Oct 2014 (Local Time) from KLCI Reporting Station
Clear Clear  
Wind Chill: 46°   Ceiling: Unl
Heat Index: 46°   Visibility: 10mi
Dew Point: 41°   Wind: 3mph
Humidity: 81%   Direction: 270°W
Pressure: 29.4"   Gusts: NA
Location:  43.58°N, 71.2°W
Report Text: KLCI 260735Z AUTO 27003KT 10SM CLR 08/05 A2940 RMK AO1
Loading
Personal Weather Stations






























Interactive Weather Map
Tropical Storm Tracking
New forecast layout! Learn more

10-Day Weather Forecast

Advertisements
Track Severe Weather on mobile